Time;durP1;ratioP1;P1;durP2;ratioP2;P2;SDS_P1;SDS_P2;PMS_P1;PMS_P2;Temp;Humidity;BMP_temperature;BMP_pressure;BME280_temperature;BME280_humidity;BME280_pressure;Samples;Min_cycle;Max_cycle;Signal;HPM_P1;HPM_P2
2023/06/08 00:00:17;;;;;;;;;;;;;;;12.67;100.00;101950.78;10458921;28;19920;-70
2023/06/08 00:05:17;;;;;;;;;;;;;;;12.66;100.00;101951.78;10459226;28;20259;-70
2023/06/08 00:10:17;;;;;;;;;;;;;;;12.61;100.00;101954.25;10458714;28;19917;-70
2023/06/08 00:15:18;;;;;;;;;;;;;;;12.55;100.00;101955.81;10440733;28;19983;-70
2023/06/08 00:20:18;;;;;;;;;;;;;;;12.48;100.00;101944.84;10458201;28;19939;-77
2023/06/08 00:25:19;;;;;;;;;;;;;;;12.45;100.00;101937.06;10442186;28;19932;-77
2023/06/08 00:30:19;;;;;;;;;;;;;;;12.41;100.00;101934.88;10459046;28;19916;-77
2023/06/08 00:35:19;;;;;;;;;;;;;;;12.39;100.00;101940.50;10441454;28;19920;-77
2023/06/08 00:40:20;;;;;;;;;;;;;;;12.37;100.00;101944.44;10440623;28;20087;-77
2023/06/08 00:45:20;;;;;;;;;;;;;;;12.31;100.00;101944.13;10424239;28;19970;-77
2023/06/08 00:50:20;;;;;;;;;;;;;;;12.30;100.00;101934.31;10423623;28;19921;-77
2023/06/08 00:55:21;;;;;;;;;;;;;;;12.30;100.00;101926.16;10459648;28;20011;-77
2023/06/08 01:00:22;;;;;;;;;;;;;;;12.27;100.00;101929.25;10457339;28;20273;-77
2023/06/08 01:05:23;;;;;;;;;;;;;;;12.22;100.00;101912.66;10440662;28;20302;-77
2023/06/08 01:10:42;;;;;;;;;;;;;;;12.19;100.00;101902.19;10440681;28;19917;-77
2023/06/08 01:15:43;;;;;;;;;;;;;;;12.13;100.00;101897.47;10441397;28;19917;-77
2023/06/08 01:21:07;;;;;;;;;;;;;;;12.10;100.00;101906.81;10422441;28;19916;-77
2023/06/08 01:26:10;;;;;;;;;;;;;;;12.04;100.00;101907.56;10458173;28;20348;-78
2023/06/08 01:31:10;;;;;;;;;;;;;;;12.03;100.00;101894.19;10456430;28;19923;-78
2023/06/08 01:36:21;;;;;;;;;;;;;;;12.04;100.00;101907.56;10456508;28;20023;-77
2023/06/08 01:41:26;;;;;;;;;;;;;;;12.00;100.00;101897.25;10437787;28;20014;-76
2023/06/08 01:46:28;;;;;;;;;;;;;;;11.93;100.00;101890.84;10455967;28;20309;-77
2023/06/08 01:51:28;;;;;;;;;;;;;;;11.93;100.00;101893.56;10438576;28;19920;-77
2023/06/08 01:56:29;;;;;;;;;;;;;;;11.91;100.00;101904.63;10438824;28;20314;-77
2023/06/08 02:01:30;;;;;;;;;;;;;;;11.85;100.00;101897.19;10457152;28;20256;-77
2023/06/08 02:06:30;;;;;;;;;;;;;;;11.83;100.00;101902.75;10437586;28;19928;-77
2023/06/08 02:11:31;;;;;;;;;;;;;;;11.78;100.00;101896.22;10437490;28;19921;-77
2023/06/08 02:16:33;;;;;;;;;;;;;;;11.80;100.00;101896.84;10423251;28;19921;-76
2023/06/08 02:21:33;;;;;;;;;;;;;;;11.76;100.00;101890.94;10445562;28;19921;-77
2023/06/08 02:26:33;;;;;;;;;;;;;;;11.74;100.00;101893.00;10446117;28;19943;-77
2023/06/08 02:31:34;;;;;;;;;;;;;;;11.73;100.00;101885.03;10445026;28;19921;-77
2023/06/08 02:36:34;;;;;;;;;;;;;;;11.71;100.00;101882.53;10445579;28;20007;-77
2023/06/08 02:41:34;;;;;;;;;;;;;;;11.66;100.00;101882.22;10444617;28;19927;-77
2023/06/08 02:46:36;;;;;;;;;;;;;;;11.64;100.00;101884.25;10444682;28;19932;-77
2023/06/08 02:51:36;;;;;;;;;;;;;;;11.65;100.00;101891.38;10428033;28;19952;-77
2023/06/08 02:56:37;;;;;;;;;;;;;;;11.62;100.00;101884.44;10445097;28;19959;-77
2023/06/08 03:01:53;;;;;;;;;;;;;;;11.61;100.00;101896.31;10443848;28;19920;-77
2023/06/08 03:06:53;;;;;;;;;;;;;;;11.61;100.00;101903.59;10430789;28;19921;-76
2023/06/08 03:11:54;;;;;;;;;;;;;;;11.70;100.00;101899.81;10443698;28;19917;-78
2023/06/08 03:16:57;;;;;;;;;;;;;;;11.78;100.00;101899.75;10426864;28;20019;-77
2023/06/08 03:22:02;;;;;;;;;;;;;;;11.83;100.00;101886.47;10444213;28;19917;-78
2023/06/08 03:27:02;;;;;;;;;;;;;;;11.83;100.00;101891.91;10443673;28;19923;-77
2023/06/08 03:32:03;;;;;;;;;;;;;;;11.79;100.00;101895.16;10444365;28;20363;-76
2023/06/08 03:37:03;;;;;;;;;;;;;;;11.73;100.00;101899.44;10426722;28;19921;-77
2023/06/08 03:42:03;;;;;;;;;;;;;;;11.72;100.00;101888.78;10462247;28;19985;-76
2023/06/08 03:47:04;;;;;;;;;;;;;;;11.74;100.00;101887.59;10443977;28;19921;-77
2023/06/08 03:52:04;;;;;;;;;;;;;;;11.78;100.00;101888.06;10443308;28;20012;-77
2023/06/08 03:57:06;;;;;;;;;;;;;;;11.82;100.00;101879.38;10442126;28;19970;-77
2023/06/08 04:02:06;;;;;;;;;;;;;;;11.89;100.00;101881.38;10441700;28;20352;-77
2023/06/08 04:07:06;;;;;;;;;;;;;;;11.95;100.00;101883.38;10460366;28;20011;-77
2023/06/08 04:12:07;;;;;;;;;;;;;;;12.04;100.00;101893.97;10459634;28;19925;-77
2023/06/08 04:17:07;;;;;;;;;;;;;;;12.11;100.00;101885.94;10441883;28;19920;-77
2023/06/08 04:22:08;;;;;;;;;;;;;;;12.17;100.00;101889.81;10459036;28;19927;-77
2023/06/08 04:27:08;;;;;;;;;;;;;;;12.24;100.00;101890.75;10441067;28;19988;-76
2023/06/08 04:32:08;;;;;;;;;;;;;;;12.32;100.00;101888.81;10424041;28;19929;-76
2023/06/08 04:37:10;;;;;;;;;;;;;;;12.45;100.00;101887.31;10440266;28;19925;-77
2023/06/08 04:42:10;;;;;;;;;;;;;;;12.98;100.00;101883.47;10441589;28;20272;-77
2023/06/08 04:47:11;;;;;;;;;;;;;;;13.50;100.00;101889.78;10458169;28;19921;-77
2023/06/08 04:52:16;;;;;;;;;;;;;;;13.92;100.00;101888.09;10439710;28;19977;-77
2023/06/08 04:57:19;;;;;;;;;;;;;;;14.25;100.00;101890.25;10440287;28;19947;-77
2023/06/08 05:02:19;;;;;;;;;;;;;;;14.52;100.00;101881.28;10440918;28;20327;-76
2023/06/08 05:07:19;;;;;;;;;;;;;;;14.64;100.00;101879.69;10439193;28;19940;-77
2023/06/08 05:12:19;;;;;;;;;;;;;;;14.95;100.00;101875.63;10439578;28;20020;-77
2023/06/08 05:17:21;;;;;;;;;;;;;;;14.74;100.00;101873.00;10456391;28;19975;-76
2023/06/08 05:22:22;;;;;;;;;;;;;;;14.89;100.00;101865.53;10456030;28;19939;-77
2023/06/08 05:27:22;;;;;;;;;;;;;;;15.21;100.00;101874.88;10456348;28;19920;-76
2023/06/08 05:32:22;;;;;;;;;;;;;;;14.98;100.00;101877.94;10438212;28;20236;-77
2023/06/08 05:37:22;;;;;;;;;;;;;;;14.96;100.00;101868.28;10438926;28;20015;-76
2023/06/08 05:42:23;;;;;;;;;;;;;;;15.73;100.00;101872.53;10456614;28;20058;-76
2023/06/08 05:47:23;;;;;;;;;;;;;;;16.26;100.00;101859.72;10438783;28;19931;-76
2023/06/08 05:52:23;;;;;;;;;;;;;;;16.69;100.00;101858.41;10454683;28;19998;-76
2023/06/08 05:57:23;;;;;;;;;;;;;;;17.36;100.00;101850.78;10454821;28;20019;-76
2023/06/08 06:02:25;;;;;;;;;;;;;;;17.42;100.00;101853.47;10454899;28;20256;-76
2023/06/08 06:07:25;;;;;;;;;;;;;;;17.74;100.00;101858.97;10421479;28;19921;-76
2023/06/08 06:12:25;;;;;;;;;;;;;;;18.18;98.41;101851.66;10457093;28;19927;-77
2023/06/08 06:17:26;;;;;;;;;;;;;;;16.91;98.47;101848.88;10441156;28;19920;-76
2023/06/08 06:22:26;;;;;;;;;;;;;;;16.14;100.00;101847.75;10440825;28;19974;-76
2023/06/08 06:27:26;;;;;;;;;;;;;;;16.02;100.00;101844.84;10436670;28;19962;-76
2023/06/08 06:32:27;;;;;;;;;;;;;;;16.12;100.00;101843.56;10436892;28;20365;-76
2023/06/08 06:37:34;;;;;;;;;;;;;;;17.25;100.00;101846.81;10419704;28;20268;-76
2023/06/08 06:42:36;;;;;;;;;;;;;;;18.30;97.17;101841.63;10437378;28;20375;-76
2023/06/08 06:47:37;;;;;;;;;;;;;;;19.08;90.58;101847.53;10437224;28;19942;-77
2023/06/08 06:52:38;;;;;;;;;;;;;;;19.48;88.88;101854.16;10420375;28;19927;-76
2023/06/08 06:57:40;;;;;;;;;;;;;;;20.42;87.62;101846.09;10454543;28;19956;-76
2023/06/08 07:02:40;;;;;;;;;;;;;;;20.65;80.10;101850.75;10440010;28;19936;-76
2023/06/08 07:07:40;;;;;;;;;;;;;;;20.99;77.06;101853.66;10444327;28;19921;-75
2023/06/08 07:12:41;;;;;;;;;;;;;;;21.02;79.56;101852.34;10427639;28;20059;-76
2023/06/08 07:17:44;;;;;;;;;;;;;;;21.38;73.11;101850.31;10426669;28;19940;-76
2023/06/08 07:22:44;;;;;;;;;;;;;;;22.16;77.25;101843.16;10444590;28;19928;-77
2023/06/08 07:27:44;;;;;;;;;;;;;;;22.41;66.23;101840.78;10442822;28;19927;-76
2023/06/08 07:32:45;;;;;;;;;;;;;;;22.80;74.60;101837.97;10462478;28;20017;-76
2023/06/08 07:37:46;;;;;;;;;;;;;;;23.66;72.21;101838.13;10443090;28;19921;-77
2023/06/08 07:42:47;;;;;;;;;;;;;;;24.11;71.39;101836.84;10460616;28;20257;-76
2023/06/08 07:47:48;;;;;;;;;;;;;;;23.48;61.38;101830.19;10442012;28;19921;-77
2023/06/08 07:52:48;;;;;;;;;;;;;;;23.62;62.84;101841.69;10461940;28;19921;-76
2023/06/08 07:57:48;;;;;;;;;;;;;;;23.84;56.00;101831.41;10459880;28;20405;-76
2023/06/08 08:02:48;;;;;;;;;;;;;;;23.98;55.25;101834.56;10460245;28;19921;-76
2023/06/08 08:07:49;;;;;;;;;;;;;;;23.47;55.18;101836.00;10425615;28;19960;-76
2023/06/08 08:12:49;;;;;;;;;;;;;;;23.88;58.42;101824.25;10440923;28;19927;-76
2023/06/08 08:17:49;;;;;;;;;;;;;;;24.45;59.51;101831.03;10440538;28;19929;-76
2023/06/08 08:22:50;;;;;;;;;;;;;;;24.81;52.42;101834.81;10458496;28;19931;-76
2023/06/08 08:27:50;;;;;;;;;;;;;;;24.78;55.28;101827.03;10459012;28;20340;-76
2023/06/08 08:32:50;;;;;;;;;;;;;;;25.16;50.31;101824.16;10459099;28;19943;-76
2023/06/08 08:37:51;;;;;;;;;;;;;;;25.73;56.44;101820.34;10441803;28;20221;-76
2023/06/08 08:42:53;;;;;;;;;;;;;;;26.35;56.25;101826.69;10441543;28;20287;-76
2023/06/08 08:47:53;;;;;;;;;;;;;;;26.67;49.52;101818.88;10442727;28;19917;-76
2023/06/08 08:52:56;;;;;;;;;;;;;;;25.82;51.12;101823.44;10442531;28;20256;-77
2023/06/08 08:57:57;;;;;;;;;;;;;;;25.86;48.27;101819.00;10442988;28;20351;-76
2023/06/08 09:02:57;;;;;;;;;;;;;;;25.80;49.19;101817.28;10457082;28;19921;-76
2023/06/08 09:07:57;;;;;;;;;;;;;;;26.14;51.46;101826.75;10438843;28;19921;-75
2023/06/08 09:12:58;;;;;;;;;;;;;;;26.51;47.81;101814.44;10455853;28;19917;-77
2023/06/08 09:18:02;;;;;;;;;;;;;;;25.92;49.78;101823.44;10439232;28;19928;-76
2023/06/08 09:23:14;;;;;;;;;;;;;;;26.38;51.09;101815.00;10439834;28;19921;-76
2023/06/08 09:28:28;;;;;;;;;;;;;;;26.98;50.06;101810.38;10422745;28;20008;-76
2023/06/08 09:33:33;;;;;;;;;;;;;;;27.11;47.21;101804.16;10440060;28;19927;-76
2023/06/08 09:38:33;;;;;;;;;;;;;;;26.13;44.19;101800.09;10439064;28;19917;-76
2023/06/08 09:43:33;;;;;;;;;;;;;;;26.44;47.61;101798.06;10456182;28;19999;-76
2023/06/08 09:48:34;;;;;;;;;;;;;;;26.73;45.27;101788.25;10455875;28;20360;-76
2023/06/08 09:53:36;;;;;;;;;;;;;;;27.67;46.43;101789.06;10438673;28;20315;-76
2023/06/08 09:58:38;;;;;;;;;;;;;;;27.61;46.18;101792.19;10455770;28;19924;-76
2023/06/08 10:03:38;;;;;;;;;;;;;;;27.81;45.47;101787.28;10455606;28;19964;-76
2023/06/08 10:08:39;;;;;;;;;;;;;;;27.79;48.34;101784.00;10438526;28;20372;-76
2023/06/08 10:13:39;;;;;;;;;;;;;;;27.73;45.04;101781.53;10437685;28;19974;-76
2023/06/08 10:18:40;;;;;;;;;;;;;;;28.31;45.81;101778.72;10437305;28;19927;-77
2023/06/08 10:23:40;;;;;;;;;;;;;;;28.46;43.21;101780.50;10455046;28;19932;-76
2023/06/08 10:28:59;;;;;;;;;;;;;;;28.52;46.37;101771.78;10437961;28;19923;-77
2023/06/08 10:34:04;;;;;;;;;;;;;;;28.83;44.74;101774.19;10455307;28;19920;-76
2023/06/08 10:39:06;;;;;;;;;;;;;;;28.61;42.67;101776.72;10459898;28;19940;-77
2023/06/08 10:44:23;;;;;;;;;;;;;;;28.71;43.00;101771.81;10428739;28;20337;-77
2023/06/08 10:49:23;;;;;;;;;;;;;;;28.79;43.79;101764.78;10445929;28;20010;-78
2023/06/08 10:54:24;;;;;;;;;;;;;;;29.34;43.30;101762.31;10462787;28;20332;-77
2023/06/08 10:59:31;;;;;;;;;;;;;;;29.87;42.93;101769.53;10444624;28;20261;-77
2023/06/08 11:04:32;;;;;;;;;;;;;;;29.05;42.26;101753.28;10444450;28;20383;-76
2023/06/08 11:09:33;;;;;;;;;;;;;;;29.26;42.71;101745.41;10462270;28;19927;-77
2023/06/08 11:14:33;;;;;;;;;;;;;;;28.44;40.06;101736.25;10444014;28;19916;-77
2023/06/08 11:19:34;;;;;;;;;;;;;;;29.44;43.76;101728.63;10447310;28;19969;-76
2023/06/08 11:24:35;;;;;;;;;;;;;;;30.11;42.45;101735.81;10450852;28;19917;-77
2023/06/08 11:29:35;;;;;;;;;;;;;;;30.02;39.88;101735.72;10450478;28;19965;-76
2023/06/08 11:34:36;;;;;;;;;;;;;;;30.14;41.77;101726.84;10442926;28;20276;-77
2023/06/08 11:39:42;;;;;;;;;;;;;;;29.23;40.53;101724.56;10461302;28;20012;-77
2023/06/08 11:44:43;;;;;;;;;;;;;;;29.43;41.55;101727.00;10442835;28;20354;-77
2023/06/08 11:49:52;;;;;;;;;;;;;;;30.11;40.29;101713.47;10440609;28;20015;-77
2023/06/08 11:54:53;;;;;;;;;;;;;;;30.34;41.08;101706.91;10441878;28;20336;-77
2023/06/08 11:59:53;;;;;;;;;;;;;;;30.51;39.08;101700.66;10426878;28;20021;-77
2023/06/08 12:04:58;;;;;;;;;;;;;;;30.63;36.01;101691.72;10426206;28;19923;-77
2023/06/08 12:09:59;;;;;;;;;;;;;;;30.87;40.19;101690.66;10460579;28;20398;-77
2023/06/08 12:15:00;;;;;;;;;;;;;;;30.95;39.60;101687.94;10459137;28;19925;-77
2023/06/08 12:20:05;;;;;;;;;;;;;;;30.89;36.51;101677.16;10441571;28;19924;-77
2023/06/08 12:25:08;;;;;;;;;;;;;;;30.08;38.78;101670.22;10441652;28;19917;-77
2023/06/08 12:30:09;;;;;;;;;;;;;;;31.08;40.02;101663.84;10441380;28;19956;-77
2023/06/08 12:35:09;;;;;;;;;;;;;;;31.10;37.85;101661.53;10440858;28;20442;-78
2023/06/08 12:40:34;;;;;;;;;;;;;;;31.24;40.09;101665.09;10441131;28;19952;-77
2023/06/08 12:45:35;;;;;;;;;;;;;;;31.12;37.72;101661.22;10443115;28;20046;-77
2023/06/08 12:50:36;;;;;;;;;;;;;;;30.84;35.89;101650.16;10458232;28;20050;-77
2023/06/08 12:55:37;;;;;;;;;;;;;;;30.39;35.27;101657.63;10440492;28;19921;-77
2023/06/08 13:00:37;;;;;;;;;;;;;;;29.96;38.49;101643.97;10423189;28;19917;-78
2023/06/08 13:05:38;;;;;;;;;;;;;;;30.14;36.51;101648.63;10457198;28;19916;-78
2023/06/08 13:10:39;;;;;;;;;;;;;;;30.27;36.65;101635.78;10441188;28;19923;-77
2023/06/08 13:15:42;;;;;;;;;;;;;;;29.89;37.03;101622.88;10423303;28;20011;-78
2023/06/08 13:20:53;;;;;;;;;;;;;;;29.95;38.55;101626.38;10423254;28;19917;-77
2023/06/08 13:25:57;;;;;;;;;;;;;;;30.22;36.98;101617.19;10440486;28;20407;-77
2023/06/08 13:31:00;;;;;;;;;;;;;;;29.59;37.06;101615.09;10456889;28;20019;-78
2023/06/08 13:36:01;;;;;;;;;;;;;;;29.70;37.26;101608.19;10421648;28;19986;-77
2023/06/08 13:41:02;;;;;;;;;;;;;;;29.71;36.87;101598.69;10438177;28;19917;-77
2023/06/08 13:46:15;;;;;;;;;;;;;;;29.42;37.08;101604.53;10456073;28;20182;-77
2023/06/08 13:51:15;;;;;;;;;;;;;;;29.56;38.44;101599.78;10456423;28;19917;-77
2023/06/08 13:56:26;;;;;;;;;;;;;;;29.54;37.50;101593.66;10383385;28;20300;-78
2023/06/08 14:01:27;;;;;;;;;;;;;;;29.73;37.87;101596.41;10378647;28;19921;-78
2023/06/08 14:06:27;;;;;;;;;;;;;;;29.49;39.06;101593.78;10373067;28;20226;-77
2023/06/08 14:11:28;;;;;;;;;;;;;;;29.34;37.88;101594.91;10355650;28;19928;-78
2023/06/08 14:16:29;;;;;;;;;;;;;;;28.98;38.72;101580.75;10372214;28;19983;-78
2023/06/08 14:21:30;;;;;;;;;;;;;;;29.16;38.69;101576.25;10373106;28;19926;-78
2023/06/08 14:26:31;;;;;;;;;;;;;;;28.79;38.95;101572.44;10373665;28;19928;-77
2023/06/08 14:31:34;;;;;;;;;;;;;;;28.60;39.66;101564.09;10372351;28;19997;-77
2023/06/08 14:36:37;;;;;;;;;;;;;;;28.46;39.26;101557.63;10371187;28;19921;-78
2023/06/08 14:41:50;;;;;;;;;;;;;;;28.35;39.77;101556.91;10373384;28;20339;-77
2023/06/08 14:52:46;;;;;;;;;;;;;;;28.38;39.85;101533.22;10295378;28;20021;-78
2023/06/08 14:57:57;;;;;;;;;;;;;;;28.56;40.89;101543.53;10311126;28;20000;-77
2023/06/08 15:02:58;;;;;;;;;;;;;;;28.64;41.52;101548.41;10367557;28;19917;-78
2023/06/08 15:07:58;;;;;;;;;;;;;;;28.51;41.12;101536.09;10395362;28;19917;-77
2023/06/08 15:13:01;;;;;;;;;;;;;;;28.46;41.28;101536.19;10413174;28;20427;-77
2023/06/08 15:18:01;;;;;;;;;;;;;;;28.13;41.68;101529.69;10395699;28;19918;-77
2023/06/08 15:23:13;;;;;;;;;;;;;;;27.76;42.25;101527.63;10396359;28;20007;-77
2023/06/08 15:28:13;;;;;;;;;;;;;;;27.61;42.21;101517.56;10420444;28;19967;-78
2023/06/08 15:33:17;;;;;;;;;;;;;;;27.29;42.40;101512.66;10401587;28;20273;-78
2023/06/08 15:38:18;;;;;;;;;;;;;;;27.43;42.97;101509.97;10402352;28;20382;-77
2023/06/08 15:43:19;;;;;;;;;;;;;;;27.33;42.96;101505.38;10401897;28;20007;-77
2023/06/08 15:48:34;;;;;;;;;;;;;;;27.27;43.15;101498.22;10401211;28;20364;-78
2023/06/08 15:53:44;;;;;;;;;;;;;;;26.78;43.88;101490.91;10415723;28;19921;-77
2023/06/08 15:58:56;;;;;;;;;;;;;;;26.85;44.27;101488.63;10427697;28;19969;-77
2023/06/08 16:03:57;;;;;;;;;;;;;;;26.53;44.81;101467.78;10443007;28;20000;-78
2023/06/08 16:09:23;;;;;;;;;;;;;;;26.30;45.67;101480.44;10459597;28;19924;-77
2023/06/08 16:14:24;;;;;;;;;;;;;;;26.37;45.78;101469.00;10441743;28;19917;-77
2023/06/08 16:24:54;;;;;;;;;;;;;;;25.42;46.66;101475.66;10278403;28;19922;-77
2023/06/08 16:35:49;;;;;;;;;;;;;;;24.46;48.48;101477.47;10447606;28;19964;-77
2023/06/08 16:40:43;;;;;;;;;;;;;;;23.97;50.58;101472.41;10438629;28;19979;-78
2023/06/08 16:45:49;;;;;;;;;;;;;;;23.90;51.20;101473.50;10457948;28;19974;-77
2023/06/08 16:50:50;;;;;;;;;;;;;;;23.74;51.54;101485.63;10439424;28;20318;-77
2023/06/08 16:55:55;;;;;;;;;;;;;;;23.67;51.03;101488.63;10439093;28;19983;-77
2023/06/08 17:00:56;;;;;;;;;;;;;;;23.52;51.66;101468.38;10440367;28;19921;-77
2023/06/08 17:06:01;;;;;;;;;;;;;;;23.51;51.45;101480.53;10438950;28;20043;-77
2023/06/08 17:11:03;;;;;;;;;;;;;;;23.49;51.65;101480.81;10439894;28;20368;-77
2023/06/08 17:16:11;;;;;;;;;;;;;;;23.30;52.43;101469.38;10456729;28;19920;-75
2023/06/08 17:21:13;;;;;;;;;;;;;;;23.12;53.11;101475.34;10438069;28;19916;-75
2023/06/08 17:26:14;;;;;;;;;;;;;;;22.98;53.68;101462.03;10439299;28;19916;-76
2023/06/08 17:31:14;;;;;;;;;;;;;;;22.85;54.42;101461.66;10423136;28;19917;-77
2023/06/08 17:36:17;;;;;;;;;;;;;;;22.72;54.33;101454.66;10455046;28;19921;-76
2023/06/08 17:41:25;;;;;;;;;;;;;;;22.55;54.66;101451.19;10437573;28;19916;-76
2023/06/08 17:46:25;;;;;;;;;;;;;;;22.50;54.34;101455.59;10437908;28;20332;-76
2023/06/08 17:51:28;;;;;;;;;;;;;;;22.43;53.91;101449.47;10421103;28;19970;-76
2023/06/08 17:56:29;;;;;;;;;;;;;;;22.35;55.26;101455.44;10437051;28;19931;-76
2023/06/08 18:01:35;;;;;;;;;;;;;;;22.34;54.32;101455.72;10440255;28;19928;-76
2023/06/08 18:06:45;;;;;;;;;;;;;;;22.26;54.40;101459.78;10438843;28;19923;-76
2023/06/08 18:11:47;;;;;;;;;;;;;;;22.06;55.23;101465.91;10427047;28;20023;-77
2023/06/08 18:16:48;;;;;;;;;;;;;;;21.91;55.79;101466.59;10436973;28;19920;-76
2023/06/08 18:21:51;;;;;;;;;;;;;;;21.80;56.23;101464.81;10420135;28;19917;-76
2023/06/08 18:26:51;;;;;;;;;;;;;;;21.67;58.20;101460.53;10437095;28;19960;-76
2023/06/08 18:31:52;;;;;;;;;;;;;;;21.58;56.96;101471.19;10420837;28;19958;-76
2023/06/08 18:36:53;;;;;;;;;;;;;;;21.45;57.03;101476.25;10437070;28;19932;-76
2023/06/08 18:41:53;;;;;;;;;;;;;;;21.33;57.22;101474.41;10436509;28;19921;-76
2023/06/08 18:46:54;;;;;;;;;;;;;;;21.17;57.90;101468.97;10455112;28;19917;-76
2023/06/08 18:52:02;;;;;;;;;;;;;;;20.98;58.72;101473.91;10419728;28;20439;-76
2023/06/08 18:57:06;;;;;;;;;;;;;;;20.83;59.41;101483.59;10454273;28;19925;-76
2023/06/08 19:02:06;;;;;;;;;;;;;;;20.76;57.82;101474.69;10430753;28;19916;-76
2023/06/08 19:12:46;;;;;;;;;;;;;;;20.42;60.18;101487.56;10312207;28;19918;-76
2023/06/08 19:17:47;;;;;;;;;;;;;;;20.21;62.32;101484.47;10446149;28;19921;-76
2023/06/08 19:22:54;;;;;;;;;;;;;;;20.11;62.54;101491.72;10443669;28;19917;-77
2023/06/08 19:27:55;;;;;;;;;;;;;;;19.94;62.27;101508.16;10443661;28;20010;-75
2023/06/08 19:33:00;;;;;;;;;;;;;;;19.76;64.38;101509.19;10427540;28;19923;-76
2023/06/08 19:38:01;;;;;;;;;;;;;;;19.60;65.75;101510.75;10444188;28;19960;-76
2023/06/08 19:43:02;;;;;;;;;;;;;;;19.50;64.63;101514.13;10426520;28;19924;-76
2023/06/08 19:48:03;;;;;;;;;;;;;;;19.36;67.37;101523.69;10443246;28;19928;-75
2023/06/08 19:53:04;;;;;;;;;;;;;;;19.18;66.19;101519.19;10442571;28;20268;-76
2023/06/08 19:58:05;;;;;;;;;;;;;;;19.01;68.82;101534.69;10425381;28;20003;-76
2023/06/08 20:03:06;;;;;;;;;;;;;;;18.87;66.74;101525.03;10441629;28;20020;-76
2023/06/08 20:08:06;;;;;;;;;;;;;;;18.68;69.47;101532.50;10441747;28;20281;-75
2023/06/08 20:13:07;;;;;;;;;;;;;;;18.61;69.00;101538.09;10441371;28;19951;-76
2023/06/08 20:18:07;;;;;;;;;;;;;;;18.47;71.10;101531.13;10441543;28;19944;-77
2023/06/08 20:23:07;;;;;;;;;;;;;;;18.35;71.92;101531.94;10424400;28;20407;-76
2023/06/08 20:28:08;;;;;;;;;;;;;;;18.25;72.18;101541.78;10440808;28;19967;-76
2023/06/08 20:33:08;;;;;;;;;;;;;;;18.10;74.33;101539.47;10424568;28;19917;-76
2023/06/08 20:38:09;;;;;;;;;;;;;;;18.00;72.76;101551.00;10440953;28;20055;-76
2023/06/08 20:43:09;;;;;;;;;;;;;;;17.88;73.75;101556.41;10440752;28;19923;-76
2023/06/08 20:48:09;;;;;;;;;;;;;;;17.79;75.32;101551.47;10439894;28;19931;-76
2023/06/08 20:53:09;;;;;;;;;;;;;;;17.70;79.77;101559.13;10458011;28;20363;-76
2023/06/08 20:58:10;;;;;;;;;;;;;;;17.63;79.29;101556.47;10458034;28;19971;-76
2023/06/08 21:03:14;;;;;;;;;;;;;;;17.54;81.01;101557.00;10440703;28;20244;-76
2023/06/08 21:08:14;;;;;;;;;;;;;;;17.49;78.27;101554.13;10457552;28;19993;-76
2023/06/08 21:13:15;;;;;;;;;;;;;;;17.37;78.09;101560.34;10457281;28;19944;-77
2023/06/08 21:18:15;;;;;;;;;;;;;;;17.27;80.87;101560.03;10423236;28;19920;-76
2023/06/08 21:23:15;;;;;;;;;;;;;;;17.15;81.59;101559.91;10439257;28;19917;-76
2023/06/08 21:28:17;;;;;;;;;;;;;;;17.01;84.26;101558.38;10456873;28;19956;-76
2023/06/08 21:33:17;;;;;;;;;;;;;;;16.92;86.08;101570.66;10457324;28;19917;-75
2023/06/08 21:38:17;;;;;;;;;;;;;;;16.86;83.94;101571.56;10458385;28;19917;-74
2023/06/08 21:43:17;;;;;;;;;;;;;;;16.78;86.57;101564.44;10459231;28;19999;-74
2023/06/08 21:48:18;;;;;;;;;;;;;;;16.75;84.71;101564.88;10456500;28;20299;-74
2023/06/08 21:53:18;;;;;;;;;;;;;;;16.62;89.35;101570.44;10438473;28;19932;-74
2023/06/08 21:58:18;;;;;;;;;;;;;;;16.52;86.61;101569.00;10456285;28;19966;-73
2023/06/08 22:03:18;;;;;;;;;;;;;;;16.44;86.36;101573.94;10437876;28;19917;-74
2023/06/08 22:08:19;;;;;;;;;;;;;;;16.37;85.79;101563.03;10455196;28;20324;-74
2023/06/08 22:13:19;;;;;;;;;;;;;;;16.29;87.87;101576.94;10437312;28;19921;-74
2023/06/08 22:18:21;;;;;;;;;;;;;;;16.20;88.51;101572.78;10455290;28;19966;-74
2023/06/08 22:23:21;;;;;;;;;;;;;;;16.09;88.72;101573.50;10455229;28;20390;-75
2023/06/08 22:28:21;;;;;;;;;;;;;;;15.98;90.42;101575.81;10436692;28;19953;-75
2023/06/08 22:33:25;;;;;;;;;;;;;;;15.92;89.86;101573.13;10439894;28;20328;-75
2023/06/08 22:38:26;;;;;;;;;;;;;;;15.85;89.80;101570.44;10464304;28;20100;-75
2023/06/08 22:43:26;;;;;;;;;;;;;;;15.77;91.80;101567.94;10445570;28;20027;-74
2023/06/08 22:48:27;;;;;;;;;;;;;;;15.73;92.60;101574.88;10462848;28;20366;-75
2023/06/08 22:53:33;;;;;;;;;;;;;;;15.67;90.89;101575.75;10445248;28;19940;-75
2023/06/08 22:58:34;;;;;;;;;;;;;;;15.61;92.05;101576.59;10445434;28;19917;-75
2023/06/08 23:03:34;;;;;;;;;;;;;;;15.54;89.32;101574.72;10431046;28;19920;-76
2023/06/08 23:08:35;;;;;;;;;;;;;;;15.50;92.49;101575.34;10446329;28;19921;-76
2023/06/08 23:13:37;;;;;;;;;;;;;;;15.44;91.90;101574.28;10446123;28;19917;-76
2023/06/08 23:18:38;;;;;;;;;;;;;;;15.41;92.77;101568.44;10444118;28;19920;-77
2023/06/08 23:23:38;;;;;;;;;;;;;;;15.33;89.34;101566.78;10443794;28;20329;-76
2023/06/08 23:28:39;;;;;;;;;;;;;;;15.26;93.20;101555.88;10443663;28;19916;-76
2023/06/08 23:33:40;;;;;;;;;;;;;;;15.23;95.14;101550.00;10444129;28;19924;-76
2023/06/08 23:38:40;;;;;;;;;;;;;;;15.20;95.32;101551.25;10442379;28;19939;-76
2023/06/08 23:43:40;;;;;;;;;;;;;;;15.14;94.12;101560.28;10442988;28;19917;-76
2023/06/08 23:48:41;;;;;;;;;;;;;;;15.09;92.69;101550.03;10442088;28;20245;-76
2023/06/08 23:53:41;;;;;;;;;;;;;;;15.04;93.10;101549.81;10441817;28;19917;-76
2023/06/08 23:58:41;;;;;;;;;;;;;;;15.00;93.83;101554.03;10459955;28;20007;-76
